Time;durP1;ratioP1;P1;durP2;ratioP2;P2;SDS_P1;SDS_P2;PMS_P1;PMS_P2;Temp;Humidity;BMP_temperature;BMP_pressure;BME280_temperature;BME280_humidity;BME280_pressure;Samples;Min_cycle;Max_cycle;Signal;HPM_P1;HPM_P2
2022/01/06 00:00:16;;;;;;;6.60;2.07;;;;;;;2.26;100.00;106755.72;5013709;28;20091;-70
2022/01/06 00:02:41;;;;;;;9.00;1.23;;;;;;;2.35;100.00;106442.56;5018501;28;20273;-70
2022/01/06 00:05:07;;;;;;;5.00;1.30;;;;;;;2.34;100.00;105117.78;5018132;28;20294;-70
2022/01/06 00:07:33;;;;;;;9.13;2.23;;;;;;;2.40;100.00;103804.38;5017440;28;20025;-70
2022/01/06 00:10:00;;;;;;;9.93;1.63;;;;;;;2.40;100.00;102483.19;5009916;28;20025;-69
2022/01/06 00:12:35;;;;;;;3.40;1.43;;;;;;;2.38;100.00;101817.94;5009037;28;20323;-70
2022/01/06 00:16:00;;;;;;;9.87;1.87;;;;;;;2.35;100.00;101483.16;5010638;28;20067;-70
2022/01/06 00:23:33;;;;;;;8.37;1.13;;;;;;;2.48;100.00;105142.50;5013601;28;20106;-70
2022/01/06 00:26:00;;;;;;;5.53;1.27;;;;;;;2.49;100.00;105144.31;5009203;28;20025;-70
2022/01/06 00:28:27;;;;;;;6.70;1.30;;;;;;;2.47;100.00;105470.50;5018200;28;20286;-69
2022/01/06 00:30:52;;;;;;;8.43;1.93;;;;;;;2.39;100.00;104463.75;5009613;28;20585;-70
2022/01/06 00:33:18;;;;;;;10.87;1.63;;;;;;;2.28;100.00;103453.97;5013497;28;20441;-69
2022/01/06 00:35:43;;;;;;;5.77;1.33;;;;;;;2.19;100.00;103107.34;5020940;28;20433;-69
2022/01/06 00:38:10;;;;;;;2.87;1.17;;;;;;;1.92;100.00;102728.59;5013855;28;20105;-69
2022/01/06 00:40:35;;;;;;;4.83;1.60;;;;;;;1.85;100.00;105359.41;5018470;28;20277;-69
2022/01/06 00:43:03;;;;;;;9.87;1.50;;;;;;;1.73;100.00;107651.63;5020825;28;20485;-69
2022/01/06 00:45:29;;;;;;;6.73;1.10;;;;;;;1.64;100.00;110279.03;5020563;28;20037;-70
2022/01/06 00:47:54;;;;;;;6.00;2.00;;;;;;;1.60;100.00;112918.41;5017125;28;20692;-69
2022/01/06 00:50:20;;;;;;;5.43;1.70;;;;;;;1.54;100.00;114894.00;5014032;28;20132;-69
2022/01/06 00:52:45;;;;;;;3.77;1.13;;;;;;;1.33;100.00;116176.41;5017257;28;20706;-69
2022/01/06 00:55:10;;;;;;;3.93;1.10;;;;;;;1.25;100.00;117816.25;5017398;28;20033;-67
2022/01/06 00:57:36;;;;;;;5.93;2.00;;;;;;;1.05;100.00;119433.53;5010001;28;20018;-67
2022/01/06 01:00:03;;;;;;;4.87;1.37;;;;;;;0.93;100.00;121396.69;5020616;28;20059;-67
2022/01/06 01:02:28;;;;;;;10.03;2.10;;;;;;;1.10;100.00;124749.63;5014637;28;20030;-67
2022/01/06 01:04:54;;;;;;;6.00;1.83;;;;;;;1.23;100.00;127764.22;5016819;28;20041;-67
2022/01/06 01:07:19;;;;;;;11.83;2.87;;;;;;;1.27;100.00;129767.03;5018727;28;20041;-69
2022/01/06 01:09:45;;;;;;;3.60;1.37;;;;;;;1.31;100.00;131438.63;5020773;28;20202;-69
2022/01/06 01:12:10;;;;;;;10.47;2.10;;;;;;;1.38;100.00;133118.19;5020591;28;20057;-69
2022/01/06 01:14:56;;;;;;;10.67;2.33;;;;;;;1.29;100.00;133764.06;5015841;28;20025;-70
2022/01/06 01:17:24;;;;;;;5.30;1.50;;;;;;;1.23;100.00;134748.56;5017581;28;20067;-69
2022/01/06 01:19:50;;;;;;;7.33;1.90;;;;;;;1.16;100.00;135731.94;5011391;28;20475;-70
2022/01/06 01:22:15;;;;;;;11.17;2.00;;;;;;;1.04;100.00;136369.38;5015983;28;20195;-69
2022/01/06 01:24:41;;;;;;;7.27;1.40;;;;;;;0.91;100.00;136671.38;5020419;28;20069;-69
2022/01/06 01:27:07;;;;;;;6.47;1.43;;;;;;;0.95;100.00;137679.69;5019849;28;20206;-69
2022/01/06 01:29:40;;;;;;;11.90;2.63;;;;;;;0.79;100.00;138308.47;5020271;28;20271;-69
2022/01/06 01:32:06;;;;;;;10.57;1.80;;;;;;;0.66;100.00;138941.81;5019108;28;20060;-69
2022/01/06 01:34:31;;;;;;;4.07;1.50;;;;;;;0.66;100.00;139940.78;5020025;28;20060;-70
2022/01/06 01:36:56;;;;;;;5.43;1.40;;;;;;;0.53;100.00;140577.56;5017392;28;20033;-69
2022/01/06 01:39:23;;;;;;;3.97;1.50;;;;;;;0.29;100.00;140851.78;5019817;28;20105;-69
2022/01/06 01:41:50;;;;;;;7.43;2.07;;;;;;;0.12;100.00;141144.19;5016902;28;20072;-69
2022/01/06 01:44:18;;;;;;;7.20;2.43;;;;;;;0.04;100.00;142121.88;5015329;28;20037;-69
2022/01/06 01:46:52;;;;;;;7.50;2.23;;;;;;;-0.09;100.00;142757.91;5013698;28;20148;-69
2022/01/06 01:51:50;;;;;;;5.63;1.63;;;;;;;-0.05;100.00;146098.56;5018391;28;20044;-69
2022/01/06 01:54:16;;;;;;;5.37;1.47;;;;;;;0.09;100.00;147465.09;5010792;28;20466;-69
2022/01/06 01:56:42;;;;;;;10.27;2.00;;;;;;;0.05;100.00;147457.44;5013625;28;20033;-69
2022/01/06 01:59:07;;;;;;;8.07;1.40;;;;;;;-0.04;100.00;147436.91;5013202;28;20021;-69
2022/01/06 02:01:33;;;;;;;8.10;2.23;;;;;;;-0.22;100.00;147390.72;5016535;28;20097;-69
2022/01/06 02:03:58;;;;;;;11.37;1.80;;;;;;;-0.24;100.00;147384.28;5018923;22;20133;-70
2022/01/06 02:06:24;;;;;;;9.43;2.03;;;;;;;-0.18;100.00;147400.97;5014038;28;20124;-70
2022/01/06 02:08:51;;;;;;;7.17;1.60;;;;;;;-0.22;100.00;147390.72;5013669;28;20469;-70
2022/01/06 02:11:17;;;;;;;13.00;2.20;;;;;;;-0.34;100.00;147359.94;5018403;28;20048;-70
2022/01/06 02:13:55;;;;;;;6.30;1.70;;;;;;;-0.49;100.00;147321.44;5018523;28;20266;-70
2022/01/06 02:16:25;;;;;;;7.43;1.60;;;;;;;-0.59;100.00;147297.13;5018874;28;20037;-70
2022/01/06 02:18:52;;;;;;;9.80;2.73;;;;;;;-0.60;100.00;147295.84;5016699;28;20533;-70
2022/01/06 02:21:18;;;;;;;6.87;2.40;;;;;;;-0.58;100.00;147298.41;5018943;28;20029;-70
2022/01/06 02:23:44;;;;;;;7.40;1.90;;;;;;;-0.69;100.00;147272.75;5018982;28;20394;-70
2022/01/06 02:26:10;;;;;;;7.17;2.10;;;;;;;-0.53;100.00;147311.19;5018557;28;20302;-70
2022/01/06 02:28:36;;;;;;;12.83;2.50;;;;;;;-0.49;100.00;147321.44;5018719;28;20604;-70
2022/01/06 02:31:01;;;;;;;12.87;2.30;;;;;;;-0.53;100.00;147311.19;5019214;28;20037;-70
2022/01/06 02:33:27;;;;;;;11.67;3.60;;;;;;;-0.67;100.00;147277.88;5017077;28;20600;-70
2022/01/06 02:35:54;;;;;;;10.30;2.77;;;;;;;-0.38;100.00;147350.94;5018918;28;20033;-70
2022/01/06 02:38:21;;;;;;;13.60;2.80;;;;;;;-0.46;100.00;147329.19;5017446;28;20044;-70
2022/01/06 02:40:46;;;;;;;10.87;2.30;;;;;;;-0.51;100.00;147316.31;5019118;28;20037;-70
2022/01/06 02:43:16;;;;;;;10.93;2.60;;;;;;;-0.62;100.00;147290.66;5018100;28;20031;-70
2022/01/06 02:45:42;;;;;;;11.70;2.20;;;;;;;-0.74;100.00;147258.63;5018406;28;20064;-70
2022/01/06 02:48:10;;;;;;;9.00;2.53;;;;;;;-0.68;100.00;147274.03;5017269;28;20144;-70
2022/01/06 02:50:38;;;;;;;16.63;2.97;;;;;;;-0.71;100.00;147266.34;5016500;28;20033;-70
2022/01/06 02:53:05;;;;;;;11.27;2.23;;;;;;;-0.77;100.00;147250.94;5017983;28;20112;-70
2022/01/06 02:55:31;;;;;;;8.20;2.13;;;;;;;-0.75;100.00;147257.34;5018477;28;20475;-70
2022/01/06 02:57:56;;;;;;;12.37;2.97;;;;;;;-0.82;100.00;147239.41;5016464;28;20261;-70
2022/01/06 03:00:22;;;;;;;17.47;3.33;;;;;;;-1.00;100.00;147193.25;5018556;28;20275;-70
2022/01/06 03:02:48;;;;;;;13.80;2.30;;;;;;;-0.98;100.00;147198.38;5017020;28;20399;-70
2022/01/06 03:05:16;;;;;;;12.57;2.63;;;;;;;-0.90;100.00;147218.88;5018697;28;20257;-70
2022/01/06 03:07:41;;;;;;;7.67;2.27;;;;;;;-1.06;100.00;147177.88;5018153;28;20375;-70
2022/01/06 03:10:10;;;;;;;11.37;3.00;;;;;;;-0.90;100.00;147218.88;5018151;28;20377;-70
2022/01/06 03:12:43;;;;;;;11.63;2.60;;;;;;;-0.27;100.00;147377.88;5017218;28;20037;-70
2022/01/06 03:15:10;;;;;;;11.17;2.80;;;;;;;-0.05;100.00;147434.31;5018166;28;20075;-70
2022/01/06 03:17:36;;;;;;;21.03;4.03;;;;;;;-0.11;100.00;147417.69;5016567;28;20571;-67
2022/01/06 03:20:08;;;;;;;21.17;3.97;;;;;;;-0.13;100.00;147413.78;5017916;28;20041;-67
2022/01/06 03:22:33;;;;;;;16.60;3.85;;;;;;;-0.11;100.00;147417.69;5017377;28;20718;-67
2022/01/06 03:24:59;;;;;;;13.93;3.23;;;;;;;-0.03;100.00;147439.44;5017474;28;20089;-67
2022/01/06 03:27:25;;;;;;;13.73;3.67;;;;;;;0.14;100.00;147480.53;5017778;28;20325;-67
2022/01/06 03:29:50;;;;;;;18.43;4.70;;;;;;;0.04;100.00;147454.88;5017724;28;20551;-67
2022/01/06 03:32:20;;;;;;;12.67;3.40;;;;;;;-0.03;100.00;147439.44;5018146;28;20169;-67
2022/01/06 03:34:46;;;;;;;12.53;3.43;;;;;;;-0.05;100.00;147434.31;5017190;28;20555;-67
2022/01/06 03:37:13;;;;;;;14.93;3.30;;;;;;;0.03;100.00;147452.31;5016989;28;20025;-67
2022/01/06 03:39:39;;;;;;;17.83;4.10;;;;;;;0.04;100.00;147454.88;5017499;28;20034;-67
2022/01/06 03:42:05;;;;;;;13.47;3.20;;;;;;;-0.15;100.00;147408.66;5018052;28;20175;-67
2022/01/06 03:44:30;;;;;;;16.30;3.93;;;;;;;-0.28;100.00;147374.03;5017726;28;20029;-67
2022/01/06 03:46:56;;;;;;;14.23;3.60;;;;;;;-0.34;100.00;147359.94;5017895;28;20025;-67
2022/01/06 03:49:22;;;;;;;26.47;3.60;;;;;;;-0.39;100.00;147348.38;5017867;28;20163;-67
2022/01/06 03:51:47;;;;;;;29.90;4.03;;;;;;;-0.40;100.00;147344.53;5018327;28;20068;-67
2022/01/06 03:54:13;;;;;;;24.57;4.63;;;;;;;-0.47;100.00;147327.88;5017334;28;20021;-67
2022/01/06 03:56:39;;;;;;;32.73;4.43;;;;;;;-0.08;100.00;147426.66;5017754;28;20036;-67
2022/01/06 03:59:04;;;;;;;12.10;3.40;;;;;;;-0.12;100.00;147416.41;5016358;28;20049;-67
2022/01/06 04:01:31;;;;;;;17.63;3.67;;;;;;;-0.16;100.00;147406.09;5021144;28;20362;-67
2022/01/06 04:03:56;;;;;;;20.83;3.00;;;;;;;-0.14;100.00;147411.22;5020962;28;20271;-67
2022/01/06 04:06:22;;;;;;;14.17;3.43;;;;;;;-0.03;100.00;147438.19;5021534;28;20520;-67
2022/01/06 04:08:47;;;;;;;17.90;2.90;;;;;;;0.03;100.00;147452.31;5021252;28;20143;-67
2022/01/06 04:11:13;;;;;;;10.80;2.73;;;;;;;0.01;100.00;147447.19;5021408;28;20319;-67
2022/01/06 04:13:38;;;;;;;13.50;2.70;;;;;;;0.06;100.00;147461.28;5020981;28;20120;-67
2022/01/06 04:16:08;;;;;;;13.33;2.60;;;;;;;0.11;100.00;147472.81;5021436;28;20021;-67
2022/01/06 04:18:33;;;;;;;25.47;3.67;;;;;;;0.14;100.00;147480.53;5020274;28;20048;-67
2022/01/06 04:20:59;;;;;;;17.73;3.20;;;;;;;0.17;100.00;147489.50;5020837;28;20025;-67
2022/01/06 04:23:24;;;;;;;13.83;3.30;;;;;;;0.26;100.00;147512.63;5020533;28;20182;-67
2022/01/06 04:25:50;;;;;;;18.03;3.30;;;;;;;0.30;100.00;147521.59;5021411;28;20374;-67
2022/01/06 04:28:15;;;;;;;14.77;3.33;;;;;;;0.32;100.00;147526.72;5020350;28;20052;-67
2022/01/06 04:30:40;;;;;;;20.33;4.07;;;;;;;0.35;100.00;147534.41;5021014;28;20033;-67
2022/01/06 04:33:06;;;;;;;14.77;2.60;;;;;;;0.41;100.00;147549.81;5020544;28;20621;-67
2022/01/06 04:35:31;;;;;;;14.37;2.50;;;;;;;0.41;100.00;147549.81;5020739;28;20029;-67
2022/01/06 04:37:57;;;;;;;16.40;3.27;;;;;;;0.42;100.00;147552.38;5020069;28;20258;-67
2022/01/06 04:40:22;;;;;;;11.03;2.57;;;;;;;0.43;100.00;147554.97;5020663;28;20568;-67
2022/01/06 04:42:48;;;;;;;9.03;2.77;;;;;;;0.44;100.00;147557.53;5020222;28;20048;-67
2022/01/06 04:45:13;;;;;;;9.23;3.13;;;;;;;0.44;100.00;147557.53;5020861;28;20169;-67
2022/01/06 04:47:39;;;;;;;8.77;2.33;;;;;;;0.47;100.00;147565.22;5018244;28;20201;-67
2022/01/06 04:50:05;;;;;;;11.10;2.87;;;;;;;0.45;100.00;147560.09;5020334;28;20026;-67
2022/01/06 04:52:30;;;;;;;11.93;2.47;;;;;;;0.47;100.00;147563.94;5020260;28;20033;-67
2022/01/06 04:54:56;;;;;;;9.63;2.60;;;;;;;0.53;100.00;147579.34;5020459;28;20037;-67
2022/01/06 04:57:21;;;;;;;8.73;2.37;;;;;;;0.56;100.00;147588.31;5020281;28;20026;-67
2022/01/06 04:59:46;;;;;;;12.00;2.23;;;;;;;0.34;100.00;147531.84;5020323;28;20044;-67
2022/01/06 05:02:12;;;;;;;12.13;3.27;;;;;;;0.19;100.00;147494.63;5020051;28;20163;-67
2022/01/06 05:04:37;;;;;;;7.53;2.30;;;;;;;0.08;100.00;147466.41;5020353;28;20025;-67
2022/01/06 05:07:03;;;;;;;13.37;2.50;;;;;;;-0.07;100.00;147427.94;5019961;28;20405;-67
2022/01/06 05:09:28;;;;;;;10.30;2.30;;;;;;;-0.19;100.00;147398.41;5019106;28;20067;-67
2022/01/06 05:11:54;;;;;;;13.23;3.30;;;;;;;-0.27;100.00;147376.59;5019395;28;20278;-67
2022/01/06 05:14:19;;;;;;;19.90;3.17;;;;;;;-0.35;100.00;147358.66;5020270;28;20026;-67
2022/01/06 05:16:45;;;;;;;12.80;2.33;;;;;;;-0.49;100.00;147321.44;5019507;28;20030;-67
2022/01/06 05:19:10;;;;;;;9.23;2.33;;;;;;;-0.45;100.00;147331.72;5020259;28;20060;-67
2022/01/06 05:21:36;;;;;;;15.33;3.50;;;;;;;-0.47;100.00;147326.59;5020108;28;20493;-67
2022/01/06 05:24:09;;;;;;;13.10;3.17;;;;;;;-0.49;100.00;147321.44;5019851;28;20486;-67
2022/01/06 05:26:34;;;;;;;10.43;2.70;;;;;;;-0.73;100.00;147262.44;5018181;28;20203;-67
2022/01/06 05:29:00;;;;;;;13.53;4.27;;;;;;;-0.76;100.00;147253.50;5020329;28;20021;-67
2022/01/06 05:31:25;;;;;;;12.73;3.27;;;;;;;-0.83;100.00;147235.56;5019762;28;20018;-67
2022/01/06 05:33:50;;;;;;;15.03;3.47;;;;;;;-0.86;100.00;147227.84;5019485;28;20201;-67
2022/01/06 05:36:16;;;;;;;13.13;2.83;;;;;;;-0.58;100.00;147298.41;5018890;28;20151;-67
2022/01/06 05:38:41;;;;;;;14.30;2.93;;;;;;;-0.34;100.00;147359.94;5019512;28;20029;-67
2022/01/06 05:41:07;;;;;;;10.43;2.57;;;;;;;-0.40;100.00;147344.53;5019290;28;20285;-67
2022/01/06 05:43:32;;;;;;;13.90;2.80;;;;;;;-0.43;100.00;147336.84;5018753;28;20021;-67
2022/01/06 05:45:58;;;;;;;29.93;4.37;;;;;;;-0.54;100.00;147308.63;5018248;28;20025;-67
2022/01/06 05:48:23;;;;;;;21.97;3.60;;;;;;;-0.46;100.00;147329.19;5019985;28;20381;-67
2022/01/06 05:50:49;;;;;;;13.50;3.13;;;;;;;-0.57;100.00;147300.97;5019598;28;20032;-67
2022/01/06 05:53:16;;;;;;;13.20;3.40;;;;;;;-0.76;100.00;147254.78;5017391;28;20029;-67
2022/01/06 05:55:41;;;;;;;9.47;4.13;;;;;;;-0.70;100.00;147268.91;5019232;28;20314;-67
2022/01/06 05:58:07;;;;;;;15.10;3.73;;;;;;;-0.65;100.00;147282.97;5018780;28;20022;-67
2022/01/06 06:00:32;;;;;;;13.50;4.07;;;;;;;-0.71;100.00;147267.63;5017495;28;20493;-67
2022/01/06 06:02:57;;;;;;;10.20;3.50;;;;;;;-0.88;100.00;147224.00;5017255;28;20050;-67
2022/01/06 06:05:24;;;;;;;14.63;2.83;;;;;;;-0.85;100.00;147231.69;5019354;28;20030;-67
2022/01/06 06:07:49;;;;;;;16.60;3.13;;;;;;;-0.92;100.00;147213.78;5019231;28;20262;-67
2022/01/06 06:10:15;;;;;;;11.17;3.80;;;;;;;-0.91;100.00;147217.59;5018141;28;20169;-67
2022/01/06 06:12:40;;;;;;;12.63;3.67;;;;;;;-0.75;100.00;147257.34;5016230;28;20021;-67
2022/01/06 06:15:06;;;;;;;13.73;3.70;;;;;;;-0.62;100.00;147290.66;5018505;28;20278;-67
2022/01/06 06:17:31;;;;;;;15.27;3.20;;;;;;;-0.47;100.00;147327.88;5019166;28;20540;-67
2022/01/06 06:19:57;;;;;;;12.77;3.50;;;;;;;-0.49;100.00;147321.44;5018889;28;20557;-67
2022/01/06 06:22:22;;;;;;;16.40;4.47;;;;;;;-0.62;100.00;147289.38;5019089;28;20144;-67
2022/01/06 06:24:47;;;;;;;20.23;4.40;;;;;;;-0.74;100.00;147259.91;5019168;28;20034;-67
2022/01/06 06:27:13;;;;;;;15.97;4.03;;;;;;;-0.84;100.00;147233.00;5019360;28;20018;-67
2022/01/06 06:29:38;;;;;;;15.47;4.60;;;;;;;-0.90;100.00;147218.88;5019201;28;20163;-67
2022/01/06 06:32:05;;;;;;;23.77;4.67;;;;;;;-0.68;100.00;147275.31;5019310;28;20060;-67
2022/01/06 06:34:30;;;;;;;13.27;3.70;;;;;;;-0.48;100.00;147324.06;5019084;28;20025;-67
2022/01/06 06:36:55;;;;;;;14.03;4.13;;;;;;;-0.62;100.00;147290.66;5019426;28;20026;-67
2022/01/06 06:39:21;;;;;;;15.10;4.47;;;;;;;-0.72;100.00;147263.78;5018891;28;20056;-67
2022/01/06 06:41:46;;;;;;;12.53;3.77;;;;;;;-0.70;100.00;147268.91;5018538;28;20167;-67
2022/01/06 06:44:12;;;;;;;12.70;4.00;;;;;;;-0.52;100.00;147313.75;5018888;28;20025;-67
2022/01/06 06:46:37;;;;;;;13.13;3.67;;;;;;;-0.42;100.00;147339.41;5019400;28;20277;-67
2022/01/06 06:49:03;;;;;;;16.97;4.73;;;;;;;-0.49;100.00;147321.44;5018668;28;20029;-67
2022/01/06 06:51:28;;;;;;;14.37;3.20;;;;;;;-0.44;100.00;147335.56;5019078;28;20052;-67
2022/01/06 06:53:54;;;;;;;17.67;3.43;;;;;;;-0.54;100.00;147308.63;5018839;28;20116;-67
2022/01/06 06:56:19;;;;;;;20.03;4.43;;;;;;;-0.55;100.00;147306.06;5018153;28;20207;-67
2022/01/06 06:58:45;;;;;;;19.17;5.00;;;;;;;-0.69;100.00;147272.75;5018956;28;20037;-67
2022/01/06 07:01:10;;;;;;;23.43;4.60;;;;;;;-0.82;100.00;147239.41;5018931;28;20029;-67
2022/01/06 07:03:35;;;;;;;16.73;4.47;;;;;;;-0.69;100.00;147272.75;5017719;28;20084;-67
2022/01/06 07:06:01;;;;;;;22.27;5.50;;;;;;;-0.84;100.00;147234.28;5018806;28;20173;-67
2022/01/06 07:08:26;;;;;;;15.90;4.17;;;;;;;-0.89;100.00;147222.72;5018590;28;20033;-67
2022/01/06 07:10:52;;;;;;;23.17;5.00;;;;;;;-0.88;100.00;147225.28;5018663;28;20426;-67
2022/01/06 07:13:18;;;;;;;11.63;3.60;;;;;;;-0.75;100.00;147257.34;5018327;28;20356;-67
2022/01/06 07:15:45;;;;;;;27.70;5.00;;;;;;;-0.71;100.00;147267.63;5019006;28;20021;-67
2022/01/06 07:18:10;;;;;;;15.13;3.53;;;;;;;-0.87;100.00;147226.56;5018448;28;20033;-67
2022/01/06 07:20:36;;;;;;;17.53;3.50;;;;;;;-0.79;100.00;147245.81;5018908;28;20169;-67
2022/01/06 07:23:01;;;;;;;14.40;3.87;;;;;;;-0.90;100.00;147218.88;5018524;28;20505;-67
2022/01/06 07:25:27;;;;;;;16.07;3.20;;;;;;;-1.01;100.00;147191.97;5018958;28;20036;-67
2022/01/06 07:27:52;;;;;;;15.97;4.83;;;;;;;-0.92;100.00;147213.78;5018699;28;20022;-67
2022/01/06 07:30:18;;;;;;;18.63;4.57;;;;;;;-0.85;100.00;147231.69;5018437;28;20025;-67
2022/01/06 07:32:45;;;;;;;21.10;4.83;;;;;;;-0.81;100.00;147240.69;5018451;28;20025;-67
2022/01/06 07:35:12;;;;;;;17.53;4.73;;;;;;;-0.91;100.00;147216.31;5021782;28;20290;-67
2022/01/06 07:37:37;;;;;;;12.17;4.00;;;;;;;-0.84;100.00;147234.28;5025022;28;20017;-67
2022/01/06 07:40:05;;;;;;;18.37;4.57;;;;;;;-0.89;100.00;147222.72;5024963;28;20167;-67
2022/01/06 07:42:30;;;;;;;20.70;5.50;;;;;;;-0.86;100.00;147229.13;5024866;28;20273;-67
2022/01/06 07:44:58;;;;;;;26.83;5.70;;;;;;;-0.85;100.00;147231.69;5025211;28;20258;-67
2022/01/06 07:47:24;;;;;;;18.43;4.13;;;;;;;-1.05;100.00;147180.44;5024991;28;20032;-67
2022/01/06 07:49:49;;;;;;;17.53;4.30;;;;;;;-1.16;100.00;147152.25;5024835;28;20025;-67
2022/01/06 07:52:15;;;;;;;17.20;3.83;;;;;;;-1.06;100.00;147179.16;5025617;28;20142;-67
2022/01/06 07:54:40;;;;;;;13.57;4.27;;;;;;;-0.98;100.00;147198.38;5025033;28;20410;-67
2022/01/06 07:57:06;;;;;;;20.73;4.97;;;;;;;-1.04;100.00;147183.00;5024979;28;20025;-67
2022/01/06 07:59:31;;;;;;;18.00;4.60;;;;;;;-0.90;100.00;147218.88;5024733;28;20032;-67
2022/01/06 08:01:56;;;;;;;25.43;4.50;;;;;;;-0.75;100.00;147256.06;5024349;28;20105;-67
2022/01/06 08:04:22;;;;;;;12.40;4.07;;;;;;;-0.81;100.00;147241.97;5022798;28;20041;-67
2022/01/06 08:06:47;;;;;;;20.60;5.00;;;;;;;-0.74;100.00;147258.63;5025155;28;20341;-67
2022/01/06 08:09:13;;;;;;;22.17;5.33;;;;;;;-0.66;100.00;147280.44;5024604;28;20513;-67
2022/01/06 08:11:38;;;;;;;20.53;4.30;;;;;;;-0.68;100.00;147275.31;5024583;28;20277;-67
2022/01/06 08:14:03;;;;;;;15.53;4.77;;;;;;;-0.57;100.00;147300.97;5024757;28;20021;-67
2022/01/06 08:16:29;;;;;;;18.93;7.43;;;;;;;-0.51;100.00;147316.31;5024615;28;20238;-67
2022/01/06 08:18:54;;;;;;;30.87;6.67;;;;;;;-0.51;100.00;147317.59;5024883;28;20025;-67
2022/01/06 08:21:20;;;;;;;16.00;4.83;;;;;;;-0.39;100.00;147347.09;5024531;28;20218;-67
2022/01/06 08:23:45;;;;;;;27.50;4.77;;;;;;;-0.29;100.00;147372.75;5024378;28;20025;-66
2022/01/06 08:26:11;;;;;;;20.03;4.93;;;;;;;-0.22;100.00;147390.72;5024770;28;20025;-67
2022/01/06 08:28:36;;;;;;;20.20;4.23;;;;;;;0.09;100.00;147468.97;5024558;28;20026;-67
2022/01/06 08:31:02;;;;;;;15.97;4.00;;;;;;;0.37;100.00;147539.56;5024014;28;20393;-67
2022/01/06 08:33:27;;;;;;;17.30;3.63;;;;;;;0.52;100.00;147578.06;5024603;28;20126;-67
2022/01/06 08:35:54;;;;;;;16.87;4.10;;;;;;;0.64;100.00;147607.59;5024542;28;20102;-65
2022/01/06 08:38:19;;;;;;;14.20;3.33;;;;;;;0.79;100.00;147644.81;5024366;28;20538;-65
2022/01/06 08:40:44;;;;;;;10.63;3.37;;;;;;;0.86;100.00;147662.81;5024496;28;20112;-65
2022/01/06 08:43:10;;;;;;;9.60;2.80;;;;;;;1.00;100.00;147698.75;5024636;28;20035;-65
2022/01/06 08:45:36;;;;;;;9.20;2.73;;;;;;;0.98;100.00;147693.63;5024307;28;20021;-65
2022/01/06 08:48:01;;;;;;;14.60;3.47;;;;;;;1.08;100.00;147719.28;5020831;28;20137;-65
2022/01/06 08:50:27;;;;;;;9.40;2.73;;;;;;;1.26;100.00;147764.25;5016197;28;20518;-67
2022/01/06 08:52:54;;;;;;;11.47;3.03;;;;;;;1.43;100.00;147806.63;5021271;28;20033;-67
2022/01/06 08:55:19;;;;;;;9.13;2.43;;;;;;;1.41;100.00;147802.78;5020961;28;20033;-67
2022/01/06 08:57:44;;;;;;;14.33;3.20;;;;;;;1.55;100.00;147836.19;5020845;28;20398;-67
2022/01/06 09:00:11;;;;;;;6.77;2.60;;;;;;;1.50;100.00;147824.63;5021098;28;20025;-67
2022/01/06 09:02:37;;;;;;;9.83;2.67;;;;;;;1.41;100.00;147802.78;5020179;28;20107;-67
2022/01/06 09:05:06;;;;;;;7.90;1.90;;;;;;;1.23;100.00;147755.28;5020852;28;20033;-67
2022/01/06 09:07:33;;;;;;;7.63;2.57;;;;;;;0.96;100.00;147688.44;5020699;28;20029;-67
2022/01/06 09:09:58;;;;;;;10.73;2.53;;;;;;;0.78;100.00;147642.25;5008031;28;20025;-67
2022/01/06 09:12:24;;;;;;;16.10;2.60;;;;;;;0.78;100.00;147642.25;5020643;28;20540;-65
2022/01/06 09:14:49;;;;;;;11.77;3.93;;;;;;;0.72;100.00;147628.09;5007848;28;20101;-65
2022/01/06 09:17:15;;;;;;;10.67;2.40;;;;;;;0.71;100.00;147625.53;5021160;28;20036;-65
2022/01/06 09:19:41;;;;;;;12.53;2.77;;;;;;;0.73;100.00;147630.72;5020696;28;20445;-65
2022/01/06 09:22:07;;;;;;;9.87;3.00;;;;;;;0.75;100.00;147634.56;5020745;28;20157;-65
2022/01/06 09:24:32;;;;;;;11.67;3.20;;;;;;;0.74;100.00;147632.00;5009672;28;20041;-65
2022/01/06 09:26:57;;;;;;;13.27;3.03;;;;;;;0.76;100.00;147637.13;5019262;28;20127;-65
2022/01/06 09:29:23;;;;;;;16.23;3.60;;;;;;;0.78;100.00;147643.53;5020466;28;20032;-65
2022/01/06 09:31:48;;;;;;;16.80;4.13;;;;;;;0.82;100.00;147652.50;5020975;28;20166;-65
2022/01/06 09:34:13;;;;;;;19.10;3.73;;;;;;;0.84;100.00;147657.63;5019987;28;20274;-65
2022/01/06 09:36:41;;;;;;;12.70;2.40;;;;;;;0.89;100.00;147670.50;5020514;28;20025;-65
2022/01/06 09:39:09;;;;;;;7.63;2.23;;;;;;;0.90;100.00;147673.06;5020139;28;20020;-65
2022/01/06 09:41:35;;;;;;;15.27;2.50;;;;;;;0.95;100.00;147684.59;5020589;28;20413;-65
2022/01/06 09:44:00;;;;;;;15.80;3.37;;;;;;;1.00;100.00;147698.75;5019176;28;20033;-65
2022/01/06 09:46:28;;;;;;;6.57;2.10;;;;;;;1.01;100.00;147700.03;5020162;28;20021;-65
2022/01/06 09:48:59;;;;;;;14.37;2.57;;;;;;;0.99;100.00;147694.91;5020091;28;20181;-65
2022/01/06 09:51:26;;;;;;;12.43;2.22;;;;;;;1.08;100.00;147718.00;5020373;28;20040;-67
2022/01/06 09:54:00;;;;;;;11.20;2.47;;;;;;;1.11;100.00;147727.00;5019646;28;20033;-67
2022/01/06 09:56:27;;;;;;;6.73;2.70;;;;;;;1.08;100.00;147719.28;5020048;28;20255;-67
2022/01/06 09:58:54;;;;;;;11.87;2.70;;;;;;;1.17;100.00;147742.41;5019434;28;20064;-67
2022/01/06 10:01:20;;;;;;;16.93;3.00;;;;;;;1.19;100.00;147746.25;5020349;28;20246;-67
2022/01/06 10:03:48;;;;;;;10.73;2.40;;;;;;;1.17;100.00;147742.41;5018982;28;20053;-67
2022/01/06 10:06:22;;;;;;;12.00;3.03;;;;;;;1.22;100.00;147752.72;5019868;28;20108;-65
2022/01/06 10:08:56;;;;;;;4.90;1.90;;;;;;;1.34;100.00;147783.53;5019638;28;20037;-65
2022/01/06 10:11:26;;;;;;;14.20;2.73;;;;;;;1.36;100.00;147788.66;5019161;28;20037;-65
2022/01/06 10:14:09;;;;;;;11.63;3.07;;;;;;;1.39;100.00;147796.38;5019070;28;20508;-65
2022/01/06 10:16:39;;;;;;;16.23;4.57;;;;;;;1.43;100.00;147806.63;5006911;28;20229;-65
2022/01/06 10:19:10;;;;;;;9.97;2.73;;;;;;;1.48;100.00;147819.50;5019781;28;20386;-65
2022/01/06 10:21:46;;;;;;;12.45;3.17;;;;;;;1.53;100.00;147832.31;5019597;28;20048;-65
2022/01/06 10:24:22;;;;;;;18.70;4.40;;;;;;;1.59;100.00;147847.78;5019386;28;20386;-65
2022/01/06 10:27:09;;;;;;;30.57;4.17;;;;;;;1.57;100.00;147841.31;5019958;28;20489;-67
2022/01/06 10:29:38;;;;;;;17.20;3.17;;;;;;;1.67;100.00;147867.00;5019127;28;20491;-65
2022/01/06 10:32:12;;;;;;;7.90;2.90;;;;;;;1.74;100.00;147886.31;5019313;28;20025;-65
2022/01/06 10:34:45;;;;;;;14.70;3.00;;;;;;;1.82;100.00;147904.28;5019441;28;20033;-65
2022/01/06 10:37:30;;;;;;;7.83;2.40;;;;;;;1.92;100.00;147931.25;5019133;28;20060;-65
2022/01/06 10:39:59;;;;;;;17.87;3.50;;;;;;;2.01;100.00;146947.09;5011826;28;20394;-65
2022/01/06 10:42:27;;;;;;;14.67;3.00;;;;;;;2.00;100.00;144270.16;5019004;28;20432;-65
2022/01/06 10:45:00;;;;;;;28.83;4.67;;;;;;;1.99;100.00;142264.44;5019148;28;20056;-67
2022/01/06 10:47:55;;;;;;;18.97;2.97;;;;;;;2.09;100.00;140283.03;5012119;28;20561;-67
2022/01/06 10:50:32;;;;;;;16.33;4.10;;;;;;;2.18;100.00;137968.41;4947591;28;20038;-67
2022/01/06 10:53:00;;;;;;;16.03;3.23;;;;;;;2.24;100.00;134981.81;4947072;28;20472;-67
2022/01/06 10:55:38;;;;;;;14.07;3.37;;;;;;;2.28;100.00;132656.59;4956632;28;20193;-67
2022/01/06 10:58:09;;;;;;;10.97;3.07;;;;;;;2.29;100.00;129995.09;4957140;28;20255;-67
2022/01/06 11:00:40;;;;;;;10.40;2.27;;;;;;;2.38;100.00;126351.63;4957296;28;20263;-67
2022/01/06 11:03:15;;;;;;;15.48;4.35;;;;;;;2.48;100.00;123712.56;4956295;28;20640;-67
2022/01/06 11:05:46;;;;;;;18.50;3.53;;;;;;;2.48;100.00;121385.81;4954134;28;20038;-67
2022/01/06 11:08:16;;;;;;;13.60;3.30;;;;;;;2.51;100.00;118403.75;4952863;28;20435;-68
2022/01/06 11:10:47;;;;;;;22.40;3.37;;;;;;;2.57;100.00;115096.13;4956710;28;20138;-67
2022/01/06 11:13:14;;;;;;;16.15;2.28;;;;;;;2.64;100.00;107157.38;4954238;28;20116;-67
2022/01/06 11:15:39;;;;;;;10.93;2.50;;;;;;;2.65;100.00;102857.56;4956577;28;20126;-67
2022/01/06 11:18:05;;;;;;;6.50;1.87;;;;;;;2.72;100.00;96923.25;4956529;28;20498;-67
2022/01/06 11:20:31;;;;;;;12.63;2.27;;;;;;;2.77;100.00;90664.94;4957165;28;20133;-67